Time;durP1;ratioP1;P1;durP2;ratioP2;P2;SDS_P1;SDS_P2;PMS_P1;PMS_P2;Temp;Humidity;BMP_temperature;BMP_pressure;BME280_temperature;BME280_humidity;BME280_pressure;Samples;Min_cycle;Max_cycle;Signal;HPM_P1;HPM_P2
2022/06/25 00:00:45;;;;;;;13.60;5.22;;;20.60;99.60;;;;;;4685408;30;20037;-83
2022/06/25 00:03:10;;;;;;;18.60;5.68;;;20.50;99.40;;;;;;4684168;30;20037;-85
2022/06/25 00:05:36;;;;;;;14.75;5.63;;;20.50;99.50;;;;;;4667709;30;20029;-84
2022/06/25 00:08:02;;;;;;;19.08;5.53;;;20.50;99.40;;;;;;4683564;30;20029;-82
2022/06/25 00:10:28;;;;;;;13.55;5.47;;;20.50;99.50;;;;;;4667738;30;20156;-84
2022/06/25 00:12:54;;;;;;;15.35;4.88;;;20.50;99.50;;;;;;4683667;30;20511;-84
2022/06/25 00:15:19;;;;;;;21.95;5.32;;;20.40;99.70;;;;;;4683620;30;20110;-85
2022/06/25 00:17:48;;;;;;;10.60;5.05;;;20.30;99.80;;;;;;4683667;30;20101;-86
2022/06/25 00:20:14;;;;;;;22.77;5.70;;;20.30;99.90;;;;;;4667646;30;20727;-84
2022/06/25 00:22:39;;;;;;;13.82;5.35;;;20.30;99.90;;;;;;4684101;30;20231;-83
2022/06/25 00:25:05;;;;;;;23.25;7.15;;;20.20;99.90;;;;;;4684623;30;20026;-85
2022/06/25 00:27:31;;;;;;;15.90;5.20;;;20.30;99.90;;;;;;4684622;30;20262;-85
2022/06/25 00:29:57;;;;;;;14.10;4.32;;;20.20;99.70;;;;;;4684620;30;20025;-83
2022/06/25 00:32:23;;;;;;;14.43;5.97;;;20.20;99.70;;;;;;4670438;30;20036;-82
2022/06/25 00:34:49;;;;;;;16.15;5.75;;;20.10;99.90;;;;;;4670757;30;20038;-83
2022/06/25 00:37:15;;;;;;;16.65;5.10;;;20.10;99.90;;;;;;4686299;30;20098;-84
2022/06/25 00:39:43;;;;;;;15.57;4.00;;;20.10;99.90;;;;;;4671010;30;20434;-83
2022/06/25 00:42:11;;;;;;;16.73;5.50;;;20.00;99.80;;;;;;4670170;30;20107;-84
2022/06/25 00:44:37;;;;;;;13.85;5.22;;;20.00;99.80;;;;;;4670894;30;20744;-83
2022/06/25 00:47:13;;;;;;;11.75;5.35;;;20.00;99.70;;;;;;4686123;30;20041;-84
2022/06/25 00:49:40;;;;;;;14.60;5.97;;;20.00;99.60;;;;;;4670728;30;20223;-85
2022/06/25 00:52:17;;;;;;;14.23;5.35;;;20.00;99.50;;;;;;4686400;30;20088;-83
2022/06/25 00:55:09;;;;;;;15.25;5.40;;;20.60;99.70;;;;;;4686577;30;20068;-84
2022/06/25 00:57:42;;;;;;;15.57;5.25;;;20.00;99.50;;;;;;4617853;30;20055;-84
2022/06/25 01:00:11;;;;;;;16.67;4.50;;;19.90;99.70;;;;;;4631943;30;20520;-83
2022/06/25 01:02:37;;;;;;;13.07;5.03;;;19.90;99.50;;;;;;4617143;30;20256;-84
2022/06/25 01:05:12;;;;;;;19.55;5.00;;;19.80;99.50;;;;;;4617539;30;20401;-83
2022/06/25 01:07:43;;;;;;;16.90;6.18;;;19.80;99.70;;;;;;4631853;30;20043;-84
2022/06/25 01:10:10;;;;;;;19.77;6.55;;;19.80;99.80;;;;;;4632422;30;20074;-84
2022/06/25 01:12:35;;;;;;;24.02;8.40;;;19.60;99.90;;;;;;4632135;30;20085;-84
2022/06/25 01:15:12;;;;;;;18.05;5.88;;;19.60;99.90;;;;;;4632149;30;20516;-84
2022/06/25 01:17:43;;;;;;;16.55;5.28;;;19.50;99.90;;;;;;4632414;30;20630;-84
2022/06/25 01:20:10;;;;;;;16.73;5.78;;;19.50;99.90;;;;;;4632159;30;20544;-83
2022/06/25 01:22:35;;;;;;;14.10;4.57;;;19.40;99.90;;;;;;4632030;30;20051;-83
2022/06/25 01:25:02;;;;;;;19.42;4.80;;;19.40;99.90;;;;;;4617735;30;20038;-83
2022/06/25 01:27:27;;;;;;;15.60;4.55;;;19.40;99.90;;;;;;4617914;30;20050;-85
2022/06/25 01:29:53;;;;;;;17.67;5.95;;;19.40;99.90;;;;;;4631856;30;20086;-83
2022/06/25 01:32:19;;;;;;;12.13;4.47;;;19.40;99.90;;;;;;4632029;30;20460;-85
2022/06/25 01:34:45;;;;;;;11.23;4.47;;;19.40;99.90;;;;;;4661555;30;20132;-84
2022/06/25 01:37:10;;;;;;;12.43;4.45;;;19.40;99.90;;;;;;4670362;30;20034;-84
2022/06/25 01:39:36;;;;;;;13.43;4.38;;;19.40;99.90;;;;;;4670140;30;20037;-86
2022/06/25 01:42:03;;;;;;;24.23;5.55;;;19.40;99.90;;;;;;4669006;30;20315;-85
2022/06/25 01:44:29;;;;;;;18.98;4.72;;;19.40;99.90;;;;;;4669686;30;20037;-83
2022/06/25 01:47:00;;;;;;;15.80;4.70;;;19.40;99.90;;;;;;4685314;30;20029;-83
2022/06/25 01:49:26;;;;;;;11.45;4.32;;;19.40;99.90;;;;;;4670020;30;20434;-82
2022/06/25 01:51:52;;;;;;;10.30;4.03;;;19.40;99.80;;;;;;4685809;30;20335;-82
2022/06/25 01:54:17;;;;;;;12.27;4.65;;;19.40;99.70;;;;;;4685850;30;20040;-82
2022/06/25 01:56:45;;;;;;;12.40;4.90;;;19.40;99.70;;;;;;4685619;30;20477;-85
2022/06/25 01:59:11;;;;;;;11.98;3.95;;;19.40;99.80;;;;;;4686098;30;20514;-85
2022/06/25 02:01:37;;;;;;;13.35;4.03;;;19.20;99.60;;;;;;4685159;30;20289;-86
2022/06/25 02:04:03;;;;;;;13.23;4.32;;;19.40;99.70;;;;;;4669780;30;20282;-84
2022/06/25 02:06:29;;;;;;;12.57;4.80;;;19.40;99.80;;;;;;4685380;30;20589;-82
2022/06/25 02:08:54;;;;;;;14.57;4.07;;;19.40;99.60;;;;;;4685530;30;20053;-85
2022/06/25 02:11:20;;;;;;;14.77;5.03;;;19.40;99.70;;;;;;4685326;30;20246;-84
2022/06/25 02:13:46;;;;;;;17.38;4.63;;;19.40;99.70;;;;;;4669474;30;20540;-83
2022/06/25 02:16:12;;;;;;;20.73;4.90;;;19.30;99.80;;;;;;4685119;30;20037;-83
2022/06/25 02:18:37;;;;;;;15.02;5.28;;;19.30;99.90;;;;;;4685426;30;20029;-83
2022/06/25 02:21:03;;;;;;;11.05;4.72;;;19.10;99.90;;;;;;4685287;30;20043;-84
2022/06/25 02:23:29;;;;;;;14.40;5.15;;;19.10;99.90;;;;;;4669618;30;20033;-84
2022/06/25 02:25:55;;;;;;;17.00;5.10;;;19.00;99.90;;;;;;4685133;30;20164;-84
2022/06/25 02:28:21;;;;;;;14.77;4.30;;;;;;;;;;4684967;30;20045;-84
2022/06/25 02:30:47;;;;;;;21.67;3.90;;;19.00;99.90;;;;;;4684834;30;20053;-82
2022/06/25 02:33:14;;;;;;;16.77;5.40;;;18.90;99.90;;;;;;4685292;30;20037;-84
2022/06/25 02:35:41;;;;;;;13.82;4.97;;;19.00;99.90;;;;;;4685078;30;20214;-81
2022/06/25 02:38:08;;;;;;;16.85;4.72;;;17.40;99.90;;;;;;4685073;30;20128;-83
2022/06/25 02:40:34;;;;;;;12.55;4.32;;;18.90;99.90;;;;;;4668928;30;20029;-83
2022/06/25 02:43:01;;;;;;;15.52;4.72;;;18.90;99.90;;;;;;4684939;30;20041;-83
2022/06/25 02:45:27;;;;;;;17.63;4.78;;;18.90;99.90;;;;;;4669483;30;20402;-85
2022/06/25 02:47:53;;;;;;;13.52;4.38;;;18.90;99.90;;;;;;4685018;30;20037;-85
2022/06/25 02:50:19;;;;;;;14.65;4.60;;;19.00;99.90;;;;;;4669255;30;20037;-83
2022/06/25 02:52:44;;;;;;;14.13;4.18;;;19.00;99.90;;;;;;4685031;30;20057;-83
2022/06/25 02:55:10;;;;;;;14.77;4.88;;;18.90;99.90;;;;;;4684585;30;20045;-85
2022/06/25 03:00:20;;;;;;;18.45;3.90;;;18.80;99.90;;;;;;4684804;30;20048;-85
2022/06/25 03:02:46;;;;;;;14.75;4.22;;;18.80;99.90;;;;;;4684765;30;20656;-85
2022/06/25 03:05:12;;;;;;;14.82;3.88;;;18.70;99.90;;;;;;4669206;30;20042;-84
2022/06/25 03:07:47;;;;;;;10.40;4.28;;;18.70;99.90;;;;;;4668694;30;20059;-85
2022/06/25 03:10:12;;;;;;;17.33;4.70;;;18.70;99.90;;;;;;4668587;30;20065;-86
2022/06/25 03:12:38;;;;;;;18.83;5.07;;;18.60;99.90;;;;;;4668977;30;20086;-85
2022/06/25 03:15:05;;;;;;;15.30;4.20;;;18.60;99.90;;;;;;4668413;30;20038;-83
2022/06/25 03:17:30;;;;;;;13.15;4.80;;;18.70;99.90;;;;;;4684499;30;20034;-85
2022/06/25 03:19:56;;;;;;;18.23;3.95;;;18.70;99.90;;;;;;4668620;30;20127;-83
2022/06/25 03:22:40;;;;;;;13.70;4.03;;;18.60;99.90;;;;;;4668844;30;20553;-85
2022/06/25 03:25:06;;;;;;;16.63;5.03;;;18.70;99.90;;;;;;4675920;30;20249;-84
2022/06/25 03:27:32;;;;;;;14.57;4.15;;;18.60;99.90;;;;;;4674942;30;20034;-83
2022/06/25 03:29:58;;;;;;;14.07;4.47;;;18.60;99.90;;;;;;4690213;30;20216;-79
2022/06/25 03:32:23;;;;;;;13.48;4.63;;;18.60;99.90;;;;;;4689575;30;20103;-83
2022/06/25 03:34:49;;;;;;;13.07;4.82;;;18.60;99.90;;;;;;4668946;30;20127;-84
2022/06/25 03:37:15;;;;;;;10.73;4.05;;;18.50;99.90;;;;;;4668404;30;20042;-85
2022/06/25 03:39:40;;;;;;;11.25;5.10;;;18.60;99.90;;;;;;4683955;30;20242;-84
2022/06/25 03:42:06;;;;;;;13.07;4.55;;;18.60;99.90;;;;;;4683727;30;20125;-84
2022/06/25 03:44:32;;;;;;;12.18;4.50;;;18.30;99.90;;;;;;4684032;30;20033;-85
2022/06/25 03:46:58;;;;;;;12.43;4.25;;;18.50;99.90;;;;;;4667879;30;20029;-85
2022/06/25 03:49:24;;;;;;;12.05;3.97;;;18.50;99.90;;;;;;4683949;30;20587;-83
2022/06/25 03:51:50;;;;;;;12.50;3.97;;;18.60;99.90;;;;;;4683837;30;20371;-86
2022/06/25 03:54:15;;;;;;;9.57;3.03;;;18.60;99.90;;;;;;4667521;30;20029;-84
2022/06/25 03:56:41;;;;;;;13.85;4.90;;;18.60;99.80;;;;;;4683791;30;20803;-83
2022/06/25 03:59:07;;;;;;;11.13;3.80;;;18.60;99.90;;;;;;4683846;30;20585;-82
2022/06/25 04:01:33;;;;;;;11.40;4.07;;;18.60;99.90;;;;;;4683744;30;20037;-83
2022/06/25 04:03:59;;;;;;;14.32;4.70;;;18.60;99.60;;;;;;4683979;30;20127;-85
2022/06/25 04:06:25;;;;;;;14.73;4.07;;;18.70;99.60;;;;;;4667609;30;20495;-85
2022/06/25 04:08:51;;;;;;;15.18;4.13;;;18.70;99.60;;;;;;4668355;30;20119;-82
2022/06/25 04:11:17;;;;;;;14.25;4.38;;;18.70;99.60;;;;;;4683698;30;20104;-83
2022/06/25 04:13:43;;;;;;;11.75;4.10;;;18.80;99.40;;;;;;4668213;30;20041;-85
2022/06/25 04:16:18;;;;;;;18.45;5.07;;;18.80;99.10;;;;;;4667955;30;20045;-83
2022/06/25 04:19:04;;;;;;;12.57;4.38;;;18.90;99.00;;;;;;4668000;30;20378;-85
2022/06/25 04:21:29;;;;;;;9.52;3.80;;;18.90;99.00;;;;;;4683122;30;20163;-83
2022/06/25 04:23:55;;;;;;;12.80;3.85;;;19.00;98.90;;;;;;4667858;30;20057;-82
2022/06/25 04:26:21;;;;;;;14.50;3.83;;;20.30;98.90;;;;;;4683561;30;20037;-85
2022/06/25 04:29:05;;;;;;;8.82;3.42;;;19.10;98.50;;;;;;4668061;30;20041;-83
2022/06/25 04:31:37;;;;;;;13.35;3.97;;;19.10;98.60;;;;;;4667686;30;20526;-85
2022/06/25 04:34:03;;;;;;;11.52;3.60;;;19.10;98.50;;;;;;4683563;30;20029;-84
2022/06/25 04:36:30;;;;;;;11.10;3.67;;;19.10;98.50;;;;;;4683382;30;20504;-86
2022/06/25 04:38:56;;;;;;;16.42;3.63;;;19.00;98.60;;;;;;4667628;30;20037;-82
2022/06/25 04:41:22;;;;;;;9.80;4.32;;;19.00;98.70;;;;;;4683178;30;20522;-84
2022/06/25 04:43:49;;;;;;;10.70;4.28;;;19.10;98.70;;;;;;4683669;30;20484;-84
2022/06/25 04:46:14;;;;;;;10.90;3.63;;;19.10;98.70;;;;;;4667738;30;20026;-85
2022/06/25 04:48:40;;;;;;;14.95;4.65;;;19.20;98.50;;;;;;4667939;30;20354;-84
2022/06/25 04:51:09;;;;;;;16.92;4.18;;;19.30;98.30;;;;;;4664832;30;20751;-84
2022/06/25 04:53:55;;;;;;;14.00;3.42;;;19.30;98.30;;;;;;4666192;30;20042;-84
2022/06/25 04:56:31;;;;;;;15.35;4.60;;;19.40;98.10;;;;;;4665046;30;20751;-86
2022/06/25 04:58:58;;;;;;;9.63;3.53;;;19.40;98.10;;;;;;4664942;30;20343;-83
2022/06/25 05:01:24;;;;;;;16.42;4.85;;;19.50;98.00;;;;;;4664982;30;20046;-84
2022/06/25 05:03:49;;;;;;;20.35;8.13;;;19.60;97.90;;;;;;4664867;30;20049;-85
2022/06/25 05:06:18;;;;;;;26.80;10.32;;;19.80;97.80;;;;;;4666393;30;20499;-84
2022/06/25 05:08:44;;;;;;;24.33;10.30;;;19.90;97.80;;;;;;4664757;30;20030;-84
2022/06/25 05:11:09;;;;;;;21.95;10.05;;;20.00;97.70;;;;;;4664712;30;20333;-83
2022/06/25 05:13:35;;;;;;;15.43;8.13;;;20.10;97.50;;;;;;4666426;30;20034;-86
2022/06/25 05:16:01;;;;;;;14.55;5.60;;;20.20;97.40;;;;;;4664190;30;20069;-83
2022/06/25 05:18:27;;;;;;;13.63;5.38;;;20.30;97.30;;;;;;4668724;30;20204;-84
2022/06/25 05:20:52;;;;;;;11.13;4.85;;;20.40;96.90;;;;;;4669192;30;20362;-85
2022/06/25 05:23:19;;;;;;;12.10;5.25;;;20.50;96.90;;;;;;4667866;30;20441;-85
2022/06/25 05:25:45;;;;;;;13.57;4.68;;;20.60;96.90;;;;;;4667549;30;20243;-83
2022/06/25 05:28:11;;;;;;;13.70;3.72;;;20.70;96.60;;;;;;4669128;30;20317;-82
2022/06/25 05:30:37;;;;;;;9.27;3.95;;;20.80;96.60;;;;;;4669050;30;20541;-83
2022/06/25 05:33:03;;;;;;;12.95;3.72;;;20.90;96.50;;;;;;4667595;30;20048;-81
2022/06/25 05:35:28;;;;;;;9.00;3.35;;;21.00;96.00;;;;;;4667756;30;20057;-83
2022/06/25 05:37:54;;;;;;;13.25;4.13;;;21.10;95.90;;;;;;4668805;30;20230;-83
2022/06/25 05:40:20;;;;;;;19.83;4.57;;;21.10;95.90;;;;;;4667645;30;20045;-84
2022/06/25 05:42:46;;;;;;;14.57;4.38;;;21.20;95.80;;;;;;4669136;30;20121;-85
2022/06/25 05:45:12;;;;;;;10.82;3.95;;;21.20;95.80;;;;;;4667453;30;20335;-84
2022/06/25 05:47:38;;;;;;;13.50;4.28;;;21.90;95.80;;;;;;4667651;30;20469;-85
2022/06/25 05:50:05;;;;;;;11.80;3.95;;;21.60;95.50;;;;;;4669082;30;20057;-83
2022/06/25 05:52:31;;;;;;;11.38;4.28;;;21.70;94.80;;;;;;4670195;30;20415;-83
2022/06/25 05:54:57;;;;;;;15.77;4.25;;;21.80;94.30;;;;;;4685900;30;20033;-82
2022/06/25 05:57:22;;;;;;;9.93;3.63;;;21.90;94.40;;;;;;4686049;30;20562;-84
2022/06/25 05:59:48;;;;;;;13.50;4.70;;;22.10;94.00;;;;;;4670214;30;20065;-85
2022/06/25 06:02:14;;;;;;;17.80;4.65;;;22.20;93.70;;;;;;4669927;30;20041;-85
2022/06/25 06:04:40;;;;;;;12.70;4.20;;;22.40;93.50;;;;;;4685481;30;20038;-83
2022/06/25 06:07:15;;;;;;;14.20;3.42;;;22.50;93.20;;;;;;4685255;25;20119;-85
2022/06/25 06:09:50;;;;;;;10.18;3.60;;;25.20;93.50;;;;;;4668579;30;20094;-85
2022/06/25 06:12:15;;;;;;;13.48;3.72;;;22.70;92.70;;;;;;4668617;30;20030;-85
2022/06/25 06:14:44;;;;;;;17.20;4.78;;;22.80;92.50;;;;;;4652456;30;20053;-86
2022/06/25 06:17:09;;;;;;;20.23;5.25;;;22.90;92.70;;;;;;4668354;30;20041;-83
2022/06/25 06:19:35;;;;;;;12.38;4.93;;;23.00;92.70;;;;;;4668081;30;20513;-83
2022/06/25 06:22:01;;;;;;;15.48;5.22;;;23.10;92.70;;;;;;4667954;30;20057;-84
2022/06/25 06:24:27;;;;;;;17.58;5.35;;;23.20;92.50;;;;;;4652521;30;20038;-85
2022/06/25 06:26:53;;;;;;;14.95;4.72;;;23.20;92.30;;;;;;4670171;30;20042;-83
2022/06/25 06:29:22;;;;;;;12.55;6.03;;;23.10;92.10;;;;;;4654054;30;20040;-84
2022/06/25 06:31:47;;;;;;;12.38;4.72;;;23.20;92.30;;;;;;4684629;25;20120;-86
2022/06/25 06:34:13;;;;;;;16.42;4.72;;;23.40;92.00;;;;;;4672199;30;20652;-85
2022/06/25 06:36:39;;;;;;;10.60;4.00;;;23.50;91.70;;;;;;4684872;30;20038;-84
2022/06/25 06:39:05;;;;;;;17.48;4.78;;;23.70;91.30;;;;;;4685226;30;20225;-83
2022/06/25 06:41:30;;;;;;;9.77;3.78;;;23.90;91.00;;;;;;4685207;30;20042;-85
2022/06/25 06:43:56;;;;;;;11.25;4.13;;;23.90;91.10;;;;;;4683870;30;20601;-84
2022/06/25 06:46:22;;;;;;;21.13;5.53;;;23.90;91.00;;;;;;4685390;30;20573;-85
2022/06/25 06:48:48;;;;;;;12.02;4.00;;;24.10;90.70;;;;;;4669361;30;20665;-84
2022/06/25 06:51:17;;;;;;;13.75;4.45;;;24.20;90.70;;;;;;4684931;30;20264;-82
2022/06/25 06:53:42;;;;;;;21.20;5.10;;;24.30;90.20;;;;;;4669257;30;20057;-83
2022/06/25 06:56:08;;;;;;;10.68;4.30;;;24.40;90.00;;;;;;4684493;30;20029;-84
2022/06/25 06:58:34;;;;;;;11.10;4.93;;;22.80;89.40;;;;;;4669095;30;20626;-85
2022/06/25 07:01:00;;;;;;;14.88;3.85;;;24.50;90.50;;;;;;4668530;30;20062;-85
2022/06/25 07:03:25;;;;;;;12.77;4.05;;;24.60;90.40;;;;;;4685626;25;20072;-82
2022/06/25 07:05:51;;;;;;;10.32;4.05;;;24.70;90.30;;;;;;4651648;30;20332;-84
2022/06/25 07:08:17;;;;;;;14.77;5.22;;;24.70;90.00;;;;;;4667571;30;20046;-85
2022/06/25 07:10:43;;;;;;;14.55;4.32;;;24.90;88.90;;;;;;4667089;30;20062;-85
2022/06/25 07:13:15;;;;;;;10.57;3.67;;;24.90;89.50;;;;;;4651929;30;20535;-86
2022/06/25 07:15:40;;;;;;;11.90;4.47;;;25.00;89.70;;;;;;4651919;30;20038;-84
2022/06/25 07:18:07;;;;;;;17.95;4.80;;;25.10;88.70;;;;;;4651971;30;20030;-83
2022/06/25 07:20:33;;;;;;;10.32;3.70;;;25.10;88.80;;;;;;4651738;30;20319;-84
2022/06/25 07:22:59;;;;;;;17.83;4.47;;;25.20;87.80;;;;;;4651281;30;20136;-83
2022/06/25 07:25:25;;;;;;;13.27;4.57;;;25.40;88.30;;;;;;4651524;30;20045;-81
2022/06/25 07:27:51;;;;;;;12.40;4.45;;;26.40;88.40;;;;;;4651669;30;20041;-84
2022/06/25 07:30:17;;;;;;;14.95;4.47;;;25.60;86.90;;;;;;4651589;30;20041;-83
2022/06/25 07:32:46;;;;;;;13.43;4.05;;;25.80;87.20;;;;;;4651728;30;20398;-85
2022/06/25 07:35:12;;;;;;;15.63;4.30;;;26.00;86.60;;;;;;4667426;30;20026;-83
2022/06/25 07:37:38;;;;;;;11.88;4.63;;;26.10;86.20;;;;;;4667106;30;20415;-83
2022/06/25 07:40:04;;;;;;;17.08;4.80;;;26.30;85.20;;;;;;4651392;30;20038;-84
2022/06/25 07:42:33;;;;;;;11.35;4.40;;;26.40;84.40;;;;;;4667098;30;20233;-83
2022/06/25 07:44:59;;;;;;;14.10;4.50;;;26.50;83.00;;;;;;4667739;30;20030;-84
2022/06/25 07:47:25;;;;;;;15.95;6.95;;;26.70;82.40;;;;;;4651815;30;20324;-85
2022/06/25 07:52:35;;;;;;;15.70;4.88;;;27.10;79.50;;;;;;4667293;30;20056;-83
2022/06/25 07:55:03;;;;;;;13.27;6.45;;;27.40;78.90;;;;;;4651426;30;20038;-84
2022/06/25 07:57:29;;;;;;;20.10;8.05;;;27.60;78.30;;;;;;4668811;25;20076;-83
2022/06/25 07:59:55;;;;;;;16.30;5.85;;;27.90;78.30;;;;;;4682900;30;20029;-84
2022/06/25 08:02:21;;;;;;;20.67;5.47;;;27.90;75.90;;;;;;4684269;30;20729;-82
2022/06/25 08:04:46;;;;;;;7.45;2.92;;;27.90;74.80;;;;;;4684302;30;20533;-85
2022/06/25 08:07:12;;;;;;;20.05;8.77;;;27.90;75.00;;;;;;4683849;30;20038;-84
2022/06/25 08:09:41;;;;;;;23.17;4.80;;;27.70;74.70;;;;;;4682475;30;20446;-84
2022/06/25 08:12:07;;;;;;;15.38;5.40;;;27.70;74.20;;;;;;4682467;30;20424;-83
2022/06/25 08:14:32;;;;;;;14.32;3.83;;;27.80;74.00;;;;;;4684146;30;20042;-83
2022/06/25 08:16:58;;;;;;;13.85;4.22;;;28.00;75.20;;;;;;4668687;30;20041;-83
2022/06/25 08:19:27;;;;;;;12.77;4.00;;;28.10;74.00;;;;;;4669303;30;20275;-85
2022/06/25 08:21:53;;;;;;;11.40;3.03;;;28.30;72.80;;;;;;4685242;30;20247;-82
2022/06/25 08:24:25;;;;;;;13.25;3.95;;;28.50;72.50;;;;;;4684578;30;20041;-85
2022/06/25 08:26:51;;;;;;;13.03;3.63;;;28.50;69.80;;;;;;4684453;30;20331;-84
2022/06/25 08:29:20;;;;;;;16.63;4.10;;;28.70;68.30;;;;;;4684939;30;20061;-86
2022/06/25 08:31:48;;;;;;;16.77;3.78;;;29.00;68.50;;;;;;4688418;30;20064;-85
2022/06/25 08:34:14;;;;;;;13.75;3.08;;;29.00;68.10;;;;;;4676750;30;20034;-83
2022/06/25 08:36:39;;;;;;;15.35;3.28;;;29.30;65.30;;;;;;4699757;30;20057;-84
2022/06/25 08:39:05;;;;;;;10.50;2.65;;;29.70;64.50;;;;;;4682565;30;20120;-84
2022/06/25 08:41:31;;;;;;;10.05;2.70;;;29.70;62.20;;;;;;4690025;30;20053;-83
2022/06/25 08:43:57;;;;;;;14.07;3.10;;;29.50;60.60;;;;;;4669097;30;20045;-85
2022/06/25 08:46:23;;;;;;;13.88;3.35;;;29.30;60.80;;;;;;4684581;30;20227;-83
2022/06/25 08:48:50;;;;;;;9.77;2.70;;;29.30;60.90;;;;;;4684874;30;20347;-81
2022/06/25 08:51:20;;;;;;;13.93;3.20;;;29.30;59.50;;;;;;4683469;30;20052;-85
2022/06/25 08:53:47;;;;;;;7.90;2.88;;;29.40;62.80;;;;;;4688065;30;20037;-83
2022/06/25 08:56:16;;;;;;;17.00;4.45;;;29.60;63.30;;;;;;4687144;30;20050;-85
2022/06/25 08:58:46;;;;;;;18.25;4.72;;;29.70;64.80;;;;;;4685783;30;20540;-86
2022/06/25 09:01:11;;;;;;;13.02;3.88;;;29.70;65.70;;;;;;4671256;30;20102;-86
2022/06/25 09:03:39;;;;;;;15.35;3.58;;;29.70;65.80;;;;;;4671412;30;20049;-84
2022/06/25 09:06:16;;;;;;;15.48;4.68;;;30.00;65.90;;;;;;4686864;30;20393;-83
2022/06/25 09:08:44;;;;;;;15.23;3.85;;;30.10;65.50;;;;;;4671227;30;20030;-83
2022/06/25 09:11:11;;;;;;;13.25;3.50;;;30.30;65.10;;;;;;4686936;30;20103;-84
2022/06/25 09:13:46;;;;;;;12.65;3.10;;;30.20;62.70;;;;;;4687050;30;20113;-85
2022/06/25 09:16:24;;;;;;;9.95;3.85;;;30.30;60.90;;;;;;4670637;30;20350;-84
2022/06/25 09:18:49;;;;;;;13.07;3.10;;;30.10;60.50;;;;;;4686403;30;20029;-84
2022/06/25 09:21:15;;;;;;;11.82;2.92;;;30.20;61.00;;;;;;4687090;30;20037;-83
2022/06/25 09:24:00;;;;;;;14.48;2.38;;;29.80;60.80;;;;;;4687586;30;20450;-83
2022/06/25 09:26:26;;;;;;;15.80;3.08;;;30.10;60.00;;;;;;4672049;30;20037;-83
2022/06/25 09:28:52;;;;;;;9.43;2.33;;;30.30;58.30;;;;;;4672310;30;20060;-84
2022/06/25 09:31:36;;;;;;;11.95;2.28;;;30.50;57.10;;;;;;4687725;30;20037;-84
2022/06/25 09:34:04;;;;;;;13.05;3.00;;;30.60;56.20;;;;;;4686963;30;20124;-84
2022/06/25 09:36:30;;;;;;;14.40;4.47;;;30.60;56.20;;;;;;4686322;30;20032;-84
2022/06/25 09:38:56;;;;;;;9.07;2.55;;;30.40;58.10;;;;;;4686304;30;20034;-84
2022/06/25 09:41:25;;;;;;;9.05;3.08;;;28.70;57.30;;;;;;4670079;30;20033;-83
2022/06/25 09:43:52;;;;;;;11.32;3.10;;;30.50;58.70;;;;;;4684704;30;20136;-84
2022/06/25 09:46:18;;;;;;;10.57;3.58;;;30.50;59.90;;;;;;4669870;30;20212;-83
2022/06/25 09:48:44;;;;;;;9.82;3.63;;;30.60;59.70;;;;;;4685684;30;20041;-84
2022/06/25 09:51:11;;;;;;;9.65;3.00;;;30.90;59.20;;;;;;4670288;30;20200;-84
2022/06/25 09:53:47;;;;;;;10.75;2.80;;;31.20;59.10;;;;;;4685602;30;20157;-85
2022/06/25 09:56:20;;;;;;;15.32;3.60;;;31.40;58.50;;;;;;4669647;30;20053;-85
2022/06/25 09:58:47;;;;;;;12.18;3.55;;;31.60;57.10;;;;;;4685600;30;20071;-85
2022/06/25 10:01:16;;;;;;;12.18;3.08;;;31.70;57.10;;;;;;4669665;30;20120;-83
2022/06/25 10:03:42;;;;;;;12.43;2.42;;;31.70;56.50;;;;;;4668483;30;20030;-83
2022/06/25 10:06:15;;;;;;;9.25;2.40;;;31.80;56.40;;;;;;4685353;30;20022;-85
2022/06/25 10:08:47;;;;;;;;;;;31.90;56.60;;;;;;4669750;30;20049;-84
2022/06/25 10:11:13;;;;;;;12.48;3.58;;;32.20;56.10;;;;;;4669374;30;20243;-83
2022/06/25 10:13:44;;;;;;;10.30;3.03;;;32.30;56.50;;;;;;4685526;30;20029;-85
2022/06/25 10:16:16;;;;;;;15.52;4.50;;;32.50;56.30;;;;;;4669533;30;20494;-86
2022/06/25 10:18:54;;;;;;;13.82;2.63;;;32.60;56.30;;;;;;4685420;30;20030;-86
2022/06/25 10:21:23;;;;;;;11.90;3.17;;;32.60;56.20;;;;;;4685551;30;20030;-85
2022/06/25 10:24:00;;;;;;;12.75;3.05;;;32.50;55.20;;;;;;4685788;30;20080;-85
2022/06/25 10:26:26;;;;;;;10.75;2.95;;;32.40;55.60;;;;;;4685475;30;20067;-84
2022/06/25 10:28:52;;;;;;;7.75;2.60;;;32.40;55.30;;;;;;4669389;30;20033;-84
2022/06/25 10:31:23;;;;;;;12.80;3.30;;;32.30;55.00;;;;;;4685272;30;20434;-83
2022/06/25 10:33:58;;;;;;;13.07;3.38;;;31.90;56.10;;;;;;4685021;30;20644;-86
2022/06/25 10:36:42;;;;;;;17.48;3.92;;;31.80;56.10;;;;;;4669453;30;20030;-84
2022/06/25 10:39:26;;;;;;;12.55;4.00;;;31.80;56.40;;;;;;4684836;30;20499;-86
2022/06/25 10:45:03;;;;;;;22.38;9.93;;;32.00;56.10;;;;;;4684544;30;20052;-85
2022/06/25 10:47:46;;;;;;;16.90;5.10;;;31.70;56.50;;;;;;4668955;30;20462;-85
2022/06/25 10:50:21;;;;;;;13.27;3.35;;;31.60;57.30;;;;;;4684723;30;20213;-86
2022/06/25 10:53:05;;;;;;;14.02;3.22;;;31.70;57.50;;;;;;4668920;30;20077;-85
2022/06/25 10:55:58;;;;;;;13.32;3.60;;;31.30;57.80;;;;;;4668999;30;20558;-84
2022/06/25 10:58:26;;;;;;;15.45;3.40;;;31.10;58.30;;;;;;4669155;30;20598;-86
2022/06/25 11:00:53;;;;;;;19.35;4.32;;;31.10;58.40;;;;;;4668969;30;20034;-86
2022/06/25 11:03:28;;;;;;;14.88;3.53;;;31.00;58.50;;;;;;4668758;30;20065;-83
2022/06/25 11:05:59;;;;;;;13.75;3.17;;;30.80;58.60;;;;;;4668789;30;20029;-85
2022/06/25 11:08:35;;;;;;;9.82;3.97;;;31.00;59.10;;;;;;4668907;30;20278;-86
2022/06/25 11:11:03;;;;;;;12.02;4.22;;;31.40;58.90;;;;;;4684565;30;20107;-84
2022/06/25 11:13:29;;;;;;;15.43;3.60;;;31.80;58.50;;;;;;4668960;30;20538;-85
2022/06/25 11:15:55;;;;;;;14.73;3.80;;;32.20;57.90;;;;;;4684516;30;20026;-86
2022/06/25 11:18:21;;;;;;;16.33;4.03;;;32.60;57.70;;;;;;4669240;30;20127;-85
2022/06/25 11:20:47;;;;;;;16.45;4.72;;;32.20;57.90;;;;;;4685178;30;20076;-85
2022/06/25 11:23:14;;;;;;;17.15;4.13;;;32.00;58.20;;;;;;4685148;30;20132;-86
2022/06/25 11:28:48;;;;;;;14.80;3.55;;;32.00;58.50;;;;;;4684443;30;20048;-84
2022/06/25 11:31:14;;;;;;;13.05;4.13;;;31.80;59.00;;;;;;4684168;30;20404;-84
2022/06/25 11:33:46;;;;;;;18.40;4.35;;;31.90;58.70;;;;;;4668903;30;20045;-85
2022/06/25 11:36:12;;;;;;;14.60;3.92;;;32.20;58.00;;;;;;4684347;30;20558;-85
2022/06/25 11:38:41;;;;;;;15.50;4.30;;;32.10;55.90;;;;;;4668785;30;20470;-85
2022/06/25 11:41:07;;;;;;;12.65;3.05;;;32.20;54.20;;;;;;4667715;30;20405;-87
2022/06/25 11:43:42;;;;;;;15.35;4.07;;;32.30;54.90;;;;;;4667881;30;20069;-87
2022/06/25 11:46:08;;;;;;;11.93;4.03;;;32.20;55.20;;;;;;4668122;30;20128;-87
2022/06/25 11:48:34;;;;;;;16.77;3.25;;;32.20;55.60;;;;;;4683931;30;20029;-85
2022/06/25 11:51:16;;;;;;;14.15;3.47;;;32.00;55.50;;;;;;4683969;30;20068;-86
2022/06/25 11:53:42;;;;;;;16.63;5.07;;;31.30;55.30;;;;;;4660240;25;20160;-85
2022/06/25 11:56:08;;;;;;;20.40;3.65;;;31.50;54.80;;;;;;4650944;30;20149;-84
2022/06/25 11:58:35;;;;;;;16.00;3.70;;;31.50;54.70;;;;;;4666781;30;20056;-87
2022/06/25 12:01:04;;;;;;;13.63;3.08;;;31.50;54.50;;;;;;4665080;30;20045;-85
2022/06/25 12:03:31;;;;;;;13.55;2.70;;;31.80;53.80;;;;;;4666412;30;20038;-86
2022/06/25 12:06:00;;;;;;;14.65;3.88;;;31.90;53.70;;;;;;4666806;30;20531;-85
2022/06/25 12:08:31;;;;;;;12.45;2.70;;;32.80;53.20;;;;;;4666377;30;20068;-86
2022/06/25 12:11:04;;;;;;;8.85;2.20;;;32.40;52.50;;;;;;4666178;30;20026;-87
2022/06/25 12:13:31;;;;;;;15.15;3.45;;;32.30;52.40;;;;;;4666774;30;20124;-85
2022/06/25 12:16:13;;;;;;;16.25;4.13;;;32.60;52.80;;;;;;4666643;30;20328;-85
2022/06/25 12:18:41;;;;;;;10.35;2.45;;;33.70;53.70;;;;;;4650795;30;20102;-86
2022/06/25 12:21:08;;;;;;;13.85;2.65;;;32.50;52.90;;;;;;4666228;30;20030;-85
2022/06/25 12:23:54;;;;;;;11.00;2.78;;;32.60;52.40;;;;;;4666812;30;20081;-83
2022/06/25 12:26:39;;;;;;;8.32;2.30;;;32.70;51.80;;;;;;4668186;30;20030;-86
2022/06/25 12:29:10;;;;;;;12.98;2.70;;;33.10;51.90;;;;;;4671465;30;20053;-83
2022/06/25 12:31:36;;;;;;;12.98;2.65;;;33.50;50.50;;;;;;4670972;30;20022;-84
2022/06/25 12:34:03;;;;;;;12.23;2.72;;;33.80;49.90;;;;;;4671168;30;20137;-84
2022/06/25 12:36:39;;;;;;;10.40;2.42;;;33.70;49.90;;;;;;4670076;30;20483;-85
2022/06/25 12:39:34;;;;;;;12.25;2.63;;;33.30;50.70;;;;;;4654466;30;20112;-84
2022/06/25 12:44:40;;;;;;;12.93;2.40;;;33.30;49.70;;;;;;4673662;25;20058;-84
2022/06/25 12:47:18;;;;;;;10.27;3.10;;;34.90;50.80;;;;;;4654071;30;20067;-86
2022/06/25 12:49:48;;;;;;;9.48;2.15;;;33.70;49.80;;;;;;4653964;30;20232;-84
2022/06/25 12:52:17;;;;;;;13.13;2.90;;;33.90;47.50;;;;;;4669485;30;20765;-85
2022/06/25 12:54:52;;;;;;;8.80;2.88;;;33.80;47.90;;;;;;4654119;30;20140;-85
2022/06/25 12:57:52;;;;;;;8.65;3.00;;;34.10;47.70;;;;;;4653946;30;20295;-85